createdAt,value
2023-05-20T00:00:59.140Z,8.30
2023-05-20T00:03:26.950Z,7.70
2023-05-20T00:05:54.705Z,8.73
2023-05-20T00:08:23.670Z,8.13
2023-05-20T00:10:51.293Z,7.40
2023-05-20T00:13:18.916Z,8.33
2023-05-20T00:15:47.088Z,9.27
2023-05-20T00:18:14.799Z,9.27
2023-05-20T00:20:42.467Z,7.87
2023-05-20T00:23:10.132Z,8.13
2023-05-20T00:25:39.086Z,7.93
2023-05-20T00:28:07.370Z,7.67
2023-05-20T00:30:34.972Z,7.73
2023-05-20T00:33:02.791Z,8.83
2023-05-20T00:35:30.499Z,8.30
2023-05-20T00:37:58.128Z,8.03
2023-05-20T00:40:26.060Z,8.60
2023-05-20T00:42:55.873Z,8.50
2023-05-20T00:45:23.643Z,8.40
2023-05-20T00:47:51.345Z,8.13
2023-05-20T00:50:19.279Z,8.23
2023-05-20T00:52:48.297Z,7.50
2023-05-20T00:55:15.987Z,8.17
2023-05-20T00:57:44.032Z,7.30
2023-05-20T01:00:14.970Z,8.00
2023-05-20T01:02:42.865Z,7.83
2023-05-20T01:05:11.067Z,8.30
2023-05-20T01:07:39.178Z,8.20
2023-05-20T01:10:07.890Z,7.07
2023-05-20T01:12:40.360Z,7.47
2023-05-20T01:15:11.234Z,6.70
2023-05-20T01:17:44.948Z,7.73
2023-05-20T01:20:14.185Z,7.10
2023-05-20T01:22:49.924Z,6.90
2023-05-20T01:25:17.718Z,5.80
2023-05-20T01:27:47.020Z,6.33
2023-05-20T01:30:15.632Z,6.37
2023-05-20T01:32:47.777Z,6.93
2023-05-20T01:35:17.124Z,7.70
2023-05-20T01:37:45.611Z,6.93
2023-05-20T01:40:16.789Z,6.30
2023-05-20T01:42:46.009Z,6.30
2023-05-20T01:45:13.803Z,6.63
2023-05-20T01:47:41.612Z,6.63
2023-05-20T01:50:10.148Z,6.60
2023-05-20T01:52:37.747Z,5.73
2023-05-20T01:55:06.171Z,6.30
2023-05-20T01:57:35.220Z,6.33
2023-05-20T02:00:03.812Z,6.57
2023-05-20T02:02:31.479Z,5.67
2023-05-20T02:04:59.205Z,6.47
2023-05-20T02:07:26.935Z,6.20
2023-05-20T02:09:54.657Z,6.57
2023-05-20T02:12:22.264Z,6.17
2023-05-20T02:14:51.279Z,5.80
2023-05-20T02:17:19.036Z,5.20
2023-05-20T02:19:47.020Z,5.37
2023-05-20T02:22:14.977Z,5.30
2023-05-20T02:24:43.649Z,5.73
2023-05-20T02:27:11.898Z,5.03
2023-05-20T02:29:39.586Z,5.60
2023-05-20T02:32:08.962Z,5.50
2023-05-20T02:34:36.598Z,5.10
2023-05-20T02:37:04.356Z,5.10
2023-05-20T02:39:32.025Z,5.37
2023-05-20T02:41:59.629Z,5.53
2023-05-20T02:44:27.265Z,5.60
2023-05-20T02:46:55.118Z,5.20
2023-05-20T02:49:24.389Z,5.80
2023-05-20T02:51:52.113Z,5.20
2023-05-20T02:54:19.708Z,5.50
2023-05-20T02:56:47.510Z,5.80
2023-05-20T02:59:15.510Z,5.40
2023-05-20T03:01:43.240Z,5.60
2023-05-20T03:04:11.578Z,5.43
2023-05-20T03:06:44.616Z,6.30
2023-05-20T03:09:12.717Z,5.40
2023-05-20T03:11:40.327Z,6.30
2023-05-20T03:14:07.972Z,5.53
2023-05-20T03:16:36.297Z,5.80
2023-05-20T03:19:03.995Z,5.57
2023-05-20T03:21:32.417Z,5.87
2023-05-20T03:24:01.477Z,5.70
2023-05-20T03:26:30.533Z,5.57
2023-05-20T03:28:58.294Z,5.50
2023-05-20T03:31:26.020Z,6.13
2023-05-20T03:33:53.684Z,5.80
2023-05-20T03:36:21.357Z,5.57
2023-05-20T03:38:49.412Z,5.73
2023-05-20T03:41:18.465Z,6.57
2023-05-20T03:43:46.143Z,5.70
2023-05-20T03:46:13.803Z,6.40
2023-05-20T03:48:41.561Z,6.20
2023-05-20T03:51:09.280Z,5.60
2023-05-20T03:53:36.905Z,5.90
2023-05-20T03:56:05.192Z,6.10
2023-05-20T03:58:35.328Z,5.90
2023-05-20T04:01:03.122Z,6.33
2023-05-20T04:03:31.485Z,6.93
2023-05-20T04:05:59.246Z,6.17
2023-05-20T04:08:26.948Z,6.43
2023-05-20T04:10:57.097Z,6.83
2023-05-20T04:13:26.221Z,6.97
2023-05-20T04:15:55.348Z,6.70
2023-05-20T04:18:22.948Z,6.70
2023-05-20T04:20:51.130Z,6.00
2023-05-20T04:23:18.713Z,6.43
2023-05-20T04:25:46.364Z,6.00
2023-05-20T04:28:16.201Z,6.53
2023-05-20T04:30:45.106Z,6.43
2023-05-20T04:33:14.897Z,6.90
2023-05-20T04:35:44.228Z,6.90
2023-05-20T04:38:11.915Z,6.67
2023-05-20T04:40:39.587Z,5.80
2023-05-20T04:43:07.224Z,6.13
2023-05-20T04:45:36.634Z,5.80
2023-05-20T04:48:04.339Z,5.70
2023-05-20T04:50:33.321Z,5.70
2023-05-20T04:53:00.997Z,5.33
2023-05-20T04:55:28.839Z,5.50
2023-05-20T04:57:56.500Z,5.27
2023-05-20T05:00:24.854Z,4.87
2023-05-20T05:02:52.612Z,4.60
2023-05-20T05:05:20.358Z,4.43
2023-05-20T05:07:49.322Z,4.73
2023-05-20T05:10:16.976Z,3.70
2023-05-20T05:12:44.616Z,4.00
2023-05-20T05:15:12.617Z,3.90
2023-05-20T05:17:40.271Z,3.80
2023-05-20T05:20:09.704Z,4.50
2023-05-20T05:22:39.632Z,4.17
2023-05-20T05:25:10.567Z,3.93
2023-05-20T05:27:38.459Z,4.50
2023-05-20T05:30:08.011Z,3.70
2023-05-20T05:32:36.363Z,4.47
2023-05-20T05:35:05.559Z,4.23
2023-05-20T05:37:34.625Z,3.63
2023-05-20T05:40:02.224Z,3.83
2023-05-20T05:42:31.236Z,3.50
2023-05-20T05:45:00.290Z,3.93
2023-05-20T05:47:32.331Z,2.90
2023-05-20T05:50:00.490Z,4.30
2023-05-20T05:52:28.552Z,4.03
2023-05-20T05:54:56.299Z,3.70
2023-05-20T05:57:24.057Z,4.30
2023-05-20T05:59:53.174Z,3.70
2023-05-20T06:02:20.848Z,3.33
2023-05-20T06:04:48.498Z,3.57
2023-05-20T06:07:16.714Z,3.40
2023-05-20T06:09:44.333Z,3.00
2023-05-20T06:12:13.874Z,3.43
2023-05-20T06:14:41.795Z,2.97
2023-05-20T06:17:10.789Z,2.83
2023-05-20T06:19:38.488Z,2.90
2023-05-20T06:22:06.192Z,2.80
2023-05-20T06:24:35.809Z,2.50
2023-05-20T06:27:03.968Z,3.20
2023-05-20T06:29:31.602Z,2.43
2023-05-20T06:31:59.310Z,2.40
2023-05-20T06:34:28.318Z,3.20
2023-05-20T06:36:56.393Z,2.73
2023-05-20T06:39:24.142Z,2.63
2023-05-20T06:41:52.081Z,2.70
2023-05-20T06:44:19.971Z,2.80
2023-05-20T06:46:47.754Z,2.90
2023-05-20T06:49:15.473Z,3.20
2023-05-20T06:51:45.102Z,3.27
2023-05-20T06:54:12.780Z,2.90
2023-05-20T06:56:40.424Z,3.27
2023-05-20T06:59:08.030Z,2.60
2023-05-20T07:01:35.674Z,2.60
2023-05-20T07:04:03.479Z,2.40
2023-05-20T07:06:31.491Z,3.00
2023-05-20T07:09:00.913Z,2.70
2023-05-20T07:11:28.687Z,2.30
2023-05-20T07:13:57.115Z,2.83
2023-05-20T07:16:24.860Z,2.93
2023-05-20T07:18:52.798Z,2.70
2023-05-20T07:21:20.482Z,2.80
2023-05-20T07:23:48.124Z,2.93
2023-05-20T07:26:17.126Z,3.33
2023-05-20T07:28:45.625Z,3.10
2023-05-20T07:31:13.436Z,3.13
2023-05-20T07:33:41.181Z,3.20
2023-05-20T07:36:10.463Z,2.80
2023-05-20T07:38:40.998Z,3.07
2023-05-20T07:41:09.237Z,2.80
2023-05-20T07:43:38.271Z,3.30
2023-05-20T07:46:05.889Z,2.97
2023-05-20T07:48:33.567Z,3.33
2023-05-20T07:51:01.345Z,3.70
2023-05-20T07:53:28.974Z,2.40
2023-05-20T07:55:57.359Z,4.13
2023-05-20T07:58:24.938Z,3.00
2023-05-20T08:00:53.917Z,3.00
2023-05-20T08:03:22.427Z,3.77
2023-05-20T08:05:51.017Z,3.20
2023-05-20T08:08:18.672Z,4.17
2023-05-20T08:10:46.344Z,3.93
2023-05-20T08:13:13.964Z,4.10
2023-05-20T08:15:41.571Z,7.20
2023-05-20T08:18:10.895Z,4.70
2023-05-20T08:20:38.656Z,5.13
2023-05-20T08:23:06.275Z,4.70
2023-05-20T08:25:34.123Z,4.17
2023-05-20T08:28:03.834Z,3.70
2023-05-20T08:30:31.632Z,4.00
2023-05-20T08:32:59.905Z,3.77
2023-05-20T08:35:29.022Z,3.93
2023-05-20T08:37:56.740Z,4.37
2023-05-20T08:40:24.543Z,4.40
2023-05-20T08:42:53.333Z,4.50
2023-05-20T08:45:26.460Z,4.70
2023-05-20T08:47:54.243Z,4.77
2023-05-20T08:50:22.218Z,4.43
2023-05-20T08:52:51.677Z,4.57
2023-05-20T08:55:25.067Z,4.80
2023-05-20T08:57:54.507Z,4.80
2023-05-20T09:00:27.030Z,4.60
2023-05-20T09:02:54.798Z,4.10
2023-05-20T09:05:23.467Z,3.50
2023-05-20T09:07:52.462Z,4.27
2023-05-20T09:10:20.828Z,3.67
2023-05-20T09:12:48.812Z,3.50
2023-05-20T09:15:16.469Z,3.47
2023-05-20T09:17:44.217Z,3.93
2023-05-20T09:20:12.554Z,3.60
2023-05-20T09:22:40.975Z,4.20
2023-05-20T09:25:12.335Z,4.20
2023-05-20T09:27:41.028Z,3.50
2023-05-20T09:30:12.675Z,3.90
2023-05-20T09:32:40.500Z,3.80
2023-05-20T09:35:09.184Z,3.10
2023-05-20T09:37:38.050Z,4.37
2023-05-20T09:40:09.220Z,3.70
2023-05-20T09:42:41.483Z,3.63
2023-05-20T09:45:10.361Z,3.83
2023-05-20T09:47:40.666Z,4.17
2023-05-20T09:50:09.971Z,4.07
2023-05-20T09:52:39.106Z,4.30
2023-05-20T09:55:08.438Z,4.00
2023-05-20T09:57:36.438Z,3.43
2023-05-20T10:00:08.485Z,4.13
2023-05-20T10:02:37.668Z,4.40
2023-05-20T10:05:12.258Z,4.33
2023-05-20T10:08:11.784Z,3.80
2023-05-20T10:10:47.854Z,4.20
2023-05-20T10:13:26.410Z,3.80
2023-05-20T10:16:03.273Z,3.90
2023-05-20T10:21:22.315Z,4.40
2023-05-20T10:23:50.042Z,3.47
2023-05-20T10:26:17.814Z,3.83
2023-05-20T10:28:46.811Z,3.70
2023-05-20T10:31:19.855Z,4.00
2023-05-20T10:33:48.477Z,3.63
2023-05-20T10:36:27.633Z,3.80
2023-05-20T10:38:56.175Z,3.60
2023-05-20T10:41:26.546Z,3.60
2023-05-20T10:44:04.564Z,3.63
2023-05-20T10:46:46.308Z,3.37
2023-05-20T10:49:26.776Z,3.30
2023-05-20T10:51:55.558Z,3.80
2023-05-20T10:54:24.154Z,3.60
2023-05-20T10:56:53.400Z,3.10
2023-05-20T10:59:22.581Z,3.80
2023-05-20T11:01:52.288Z,4.10
2023-05-20T11:04:20.654Z,4.03
2023-05-20T11:06:52.236Z,3.80
2023-05-20T11:09:19.892Z,3.47
2023-05-20T11:11:47.843Z,4.00
2023-05-20T11:14:17.236Z,3.90
2023-05-20T11:16:45.177Z,3.37
2023-05-20T11:19:17.345Z,3.90
2023-05-20T11:21:45.714Z,3.97
2023-05-20T11:24:13.524Z,4.03
2023-05-20T11:26:41.781Z,3.70
2023-05-20T11:29:09.741Z,4.20
2023-05-20T11:31:39.029Z,4.57
2023-05-20T11:34:06.810Z,4.27
2023-05-20T11:36:35.898Z,4.03
2023-05-20T11:39:05.516Z,4.13
2023-05-20T11:41:33.166Z,5.20
2023-05-20T11:44:01.537Z,4.50
2023-05-20T11:46:29.429Z,4.40
2023-05-20T11:48:57.967Z,3.33
2023-05-20T11:51:27.631Z,4.20
2023-05-20T11:54:01.128Z,4.13
2023-05-20T11:56:29.961Z,3.70
2023-05-20T11:59:00.298Z,3.53
2023-05-20T12:01:28.906Z,4.17
2023-05-20T12:03:56.915Z,3.53
2023-05-20T12:06:24.666Z,3.80
2023-05-20T12:08:52.283Z,3.90
2023-05-20T12:11:21.781Z,3.50
2023-05-20T12:13:50.315Z,3.17
2023-05-20T12:16:18.051Z,3.50
2023-05-20T12:18:45.815Z,3.33
2023-05-20T12:21:13.701Z,4.07
2023-05-20T12:23:41.345Z,4.17
2023-05-20T12:26:08.947Z,3.60
2023-05-20T12:28:37.912Z,3.70
2023-05-20T12:31:05.995Z,3.60
2023-05-20T12:33:33.658Z,3.60
2023-05-20T12:36:01.364Z,3.00
2023-05-20T12:38:29.256Z,3.83
2023-05-20T12:40:57.029Z,3.30
2023-05-20T12:43:24.716Z,4.17
2023-05-20T12:45:53.813Z,3.43
2023-05-20T12:48:21.470Z,3.77
2023-05-20T12:50:49.104Z,4.30
2023-05-20T12:53:16.882Z,3.70
2023-05-20T12:55:44.493Z,4.30
2023-05-20T12:58:12.121Z,4.10
2023-05-20T13:00:39.805Z,3.47
2023-05-20T13:03:08.992Z,4.07
2023-05-20T13:05:36.745Z,3.97
2023-05-20T13:08:04.472Z,3.70
2023-05-20T13:10:32.257Z,4.27
2023-05-20T13:13:00.194Z,4.60
2023-05-20T13:15:27.924Z,4.40
2023-05-20T13:17:56.333Z,3.90
2023-05-20T13:20:25.987Z,3.77
2023-05-20T13:22:53.698Z,4.00
2023-05-20T13:25:21.583Z,4.20
2023-05-20T13:27:49.306Z,4.00
2023-05-20T13:30:16.892Z,4.13
2023-05-20T13:32:44.569Z,3.87
2023-05-20T13:35:13.006Z,3.50
2023-05-20T13:37:42.122Z,3.63
2023-05-20T13:40:10.682Z,3.43
2023-05-20T13:42:38.550Z,3.80
2023-05-20T13:45:06.934Z,3.10
2023-05-20T13:47:34.628Z,3.60
2023-05-20T13:50:03.312Z,3.13
2023-05-20T13:52:31.173Z,3.57
2023-05-20T13:55:00.243Z,3.27
2023-05-20T13:57:27.957Z,3.37
2023-05-20T13:59:55.710Z,3.80
2023-05-20T14:02:23.370Z,3.40
2023-05-20T14:04:50.967Z,3.07
2023-05-20T14:07:18.860Z,3.47
2023-05-20T14:09:46.584Z,3.27
2023-05-20T14:12:15.653Z,3.07
2023-05-20T14:14:43.304Z,3.00
2023-05-20T14:17:11.364Z,4.00
2023-05-20T14:19:39.168Z,3.67
2023-05-20T14:22:07.163Z,3.83
2023-05-20T14:24:34.855Z,3.37
2023-05-20T14:27:02.475Z,3.47
2023-05-20T14:29:31.463Z,3.17
2023-05-20T14:32:01.315Z,4.00
2023-05-20T14:34:28.971Z,3.30
2023-05-20T14:36:57.109Z,4.20
2023-05-20T14:39:24.738Z,3.60
2023-05-20T14:41:52.393Z,3.33
2023-05-20T14:44:19.993Z,3.60
2023-05-20T14:46:49.081Z,4.00
2023-05-20T14:49:16.791Z,3.60
2023-05-20T14:51:44.580Z,3.53
2023-05-20T14:54:14.023Z,3.60
2023-05-20T14:56:41.919Z,3.60
2023-05-20T14:59:09.667Z,3.50
2023-05-20T15:01:37.394Z,4.10
2023-05-20T15:04:06.962Z,4.83
2023-05-20T15:06:35.843Z,3.60
2023-05-20T15:09:04.115Z,3.57
2023-05-20T15:11:31.685Z,4.10
2023-05-20T15:13:59.446Z,3.70
2023-05-20T15:16:28.648Z,4.10
2023-05-20T15:18:56.452Z,4.60
2023-05-20T15:21:25.657Z,4.60
2023-05-20T15:23:53.453Z,4.10
2023-05-20T15:26:21.743Z,4.00
2023-05-20T15:28:49.437Z,3.83
2023-05-20T15:31:17.130Z,4.30
2023-05-20T15:33:44.872Z,4.00
2023-05-20T15:36:12.659Z,4.20
2023-05-20T15:38:41.781Z,3.93
2023-05-20T15:41:12.274Z,3.80
2023-05-20T15:43:40.311Z,4.00
2023-05-20T15:46:08.026Z,4.23
2023-05-20T15:48:37.723Z,3.87
2023-05-20T15:51:05.961Z,4.67
2023-05-20T15:53:33.696Z,4.40
2023-05-20T15:56:02.804Z,4.07
2023-05-20T15:58:30.449Z,4.40
2023-05-20T16:00:58.232Z,4.27
2023-05-20T16:03:25.846Z,4.70
2023-05-20T16:05:53.563Z,4.63
2023-05-20T16:08:23.750Z,4.80
2023-05-20T16:10:51.406Z,4.47
2023-05-20T16:13:20.501Z,4.70
2023-05-20T16:15:50.155Z,4.63
2023-05-20T16:18:17.973Z,4.30
2023-05-20T16:20:45.653Z,4.57
2023-05-20T16:23:13.278Z,4.53
2023-05-20T16:25:41.173Z,4.07
2023-05-20T16:28:08.809Z,3.90
2023-05-20T16:30:37.793Z,5.03
2023-05-20T16:33:05.607Z,4.13
2023-05-20T16:35:33.206Z,4.90
2023-05-20T16:38:00.932Z,4.13
2023-05-20T16:40:28.608Z,4.23
2023-05-20T16:42:56.252Z,4.10
2023-05-20T16:45:24.026Z,4.20
2023-05-20T16:47:53.091Z,3.93
2023-05-20T16:50:20.918Z,4.10
2023-05-20T16:52:48.590Z,4.17
2023-05-20T16:55:16.454Z,3.90
2023-05-20T16:57:44.350Z,4.50
2023-05-20T17:00:13.116Z,4.30
2023-05-20T17:02:40.813Z,4.53
2023-05-20T17:05:10.632Z,4.80
2023-05-20T17:07:39.345Z,4.80
2023-05-20T17:10:08.241Z,3.70
2023-05-20T17:12:35.842Z,4.63
2023-05-20T17:15:03.679Z,4.50
2023-05-20T17:17:31.298Z,4.87
2023-05-20T17:19:58.914Z,3.40
2023-05-20T17:22:27.939Z,3.63
2023-05-20T17:24:55.571Z,4.27
2023-05-20T17:27:23.473Z,3.73
2023-05-20T17:29:51.220Z,3.80
2023-05-20T17:32:18.844Z,3.80
2023-05-20T17:34:46.454Z,3.33
2023-05-20T17:37:14.042Z,3.70
2023-05-20T17:39:44.380Z,3.73
2023-05-20T17:42:12.060Z,4.03
2023-05-20T17:44:39.653Z,4.00
2023-05-20T17:47:07.468Z,3.60
2023-05-20T17:49:35.108Z,3.13
2023-05-20T17:52:02.680Z,3.67
2023-05-20T17:54:30.408Z,4.03
2023-05-20T17:56:59.535Z,3.90
2023-05-20T17:59:27.478Z,3.50
2023-05-20T18:01:55.765Z,3.57
2023-05-20T18:04:23.522Z,3.57
2023-05-20T18:06:51.127Z,3.27
2023-05-20T18:09:19.416Z,3.40
2023-05-20T18:11:47.068Z,3.80
2023-05-20T18:14:18.627Z,3.20
2023-05-20T18:16:46.386Z,4.13
2023-05-20T18:19:15.042Z,3.20
2023-05-20T18:21:42.707Z,3.10
2023-05-20T18:24:11.389Z,3.30
2023-05-20T18:26:39.352Z,3.60
2023-05-20T18:29:07.172Z,3.50
2023-05-20T18:31:37.121Z,3.80
2023-05-20T18:34:05.174Z,3.40
2023-05-20T18:36:33.292Z,3.30
2023-05-20T18:39:04.759Z,3.47
2023-05-20T18:41:46.143Z,3.30
2023-05-20T18:44:17.391Z,3.53
2023-05-20T18:46:48.709Z,4.07
2023-05-20T18:49:16.523Z,3.10
2023-05-20T18:51:44.395Z,3.07
2023-05-20T18:54:12.403Z,3.23
2023-05-20T18:56:40.511Z,2.90
2023-05-20T18:59:08.842Z,2.80
2023-05-20T19:01:36.675Z,3.27
2023-05-20T19:04:06.244Z,2.90
2023-05-20T19:06:34.884Z,3.67
2023-05-20T19:09:02.750Z,3.00
2023-05-20T19:11:31.699Z,3.40
2023-05-20T19:13:59.776Z,3.70
2023-05-20T19:16:27.562Z,3.40
2023-05-20T19:18:55.239Z,3.57
2023-05-20T19:21:24.416Z,4.10
2023-05-20T19:23:52.303Z,3.03
2023-05-20T19:26:20.006Z,3.40
2023-05-20T19:28:47.965Z,2.83
2023-05-20T19:31:21.134Z,3.47
2023-05-20T19:33:49.275Z,3.10
2023-05-20T19:36:17.562Z,3.07
2023-05-20T19:38:46.754Z,3.70
2023-05-20T19:41:15.373Z,3.40
2023-05-20T19:43:43.010Z,2.83
2023-05-20T19:46:11.104Z,3.93
2023-05-20T19:48:38.782Z,2.93
2023-05-20T19:51:06.956Z,3.33
2023-05-20T19:53:34.791Z,3.07
2023-05-20T19:56:04.141Z,3.33
2023-05-20T19:58:32.374Z,3.30
2023-05-20T20:01:00.075Z,2.67
2023-05-20T20:03:27.922Z,2.90
2023-05-20T20:05:57.269Z,3.57
2023-05-20T20:08:25.102Z,2.73
2023-05-20T20:10:52.740Z,3.50
2023-05-20T20:13:21.810Z,2.73
2023-05-20T20:15:49.536Z,4.30
2023-05-20T20:18:17.299Z,2.60
2023-05-20T20:20:45.906Z,2.60
2023-05-20T20:23:13.491Z,3.23
2023-05-20T20:25:42.481Z,3.20
2023-05-20T20:28:11.565Z,3.17
2023-05-20T20:30:40.634Z,3.20
2023-05-20T20:33:09.581Z,3.43
2023-05-20T20:35:38.082Z,3.00
2023-05-20T20:38:09.557Z,2.90
2023-05-20T20:40:41.741Z,3.10
2023-05-20T20:43:10.759Z,2.57
2023-05-20T20:45:39.824Z,2.50
2023-05-20T20:48:07.928Z,3.03
2023-05-20T20:50:36.631Z,2.80
2023-05-20T20:53:04.341Z,3.40
2023-05-20T20:55:32.011Z,3.93
2023-05-20T20:58:02.776Z,3.57
2023-05-20T21:00:30.801Z,2.93
2023-05-20T21:02:59.851Z,2.80
2023-05-20T21:05:29.235Z,3.63
2023-05-20T21:07:59.551Z,2.87
2023-05-20T21:10:29.522Z,3.43
2023-05-20T21:12:57.984Z,3.60
2023-05-20T21:15:27.291Z,3.07
2023-05-20T21:17:55.192Z,2.60
2023-05-20T21:20:24.251Z,3.10
2023-05-20T21:22:51.908Z,3.17
2023-05-20T21:25:19.677Z,3.20
2023-05-20T21:27:47.375Z,3.60
2023-05-20T21:30:15.784Z,3.20
2023-05-20T21:32:43.549Z,3.20
2023-05-20T21:35:11.349Z,2.83
2023-05-20T21:37:40.265Z,2.97
2023-05-20T21:40:09.084Z,2.87
2023-05-20T21:42:36.736Z,2.77
2023-05-20T21:45:04.691Z,2.63
2023-05-20T21:47:32.437Z,3.07
2023-05-20T21:50:00.387Z,3.00
2023-05-20T21:52:28.032Z,2.90
2023-05-20T21:54:57.077Z,3.20
2023-05-20T21:57:24.675Z,3.70
2023-05-20T21:59:52.320Z,3.00
2023-05-20T22:02:20.130Z,3.83
2023-05-20T22:04:49.189Z,3.40
2023-05-20T22:07:16.825Z,3.87
2023-05-20T22:09:44.457Z,3.57
2023-05-20T22:12:15.268Z,3.80
2023-05-20T22:14:42.983Z,3.40
2023-05-20T22:17:10.645Z,4.50
2023-05-20T22:19:38.686Z,4.23
2023-05-20T22:22:06.471Z,3.67
2023-05-20T22:24:34.207Z,3.73
2023-05-20T22:27:01.951Z,3.70
2023-05-20T22:29:32.331Z,3.73
2023-05-20T22:32:00.290Z,3.90
2023-05-20T22:34:28.344Z,3.67
2023-05-20T22:36:55.974Z,3.20
2023-05-20T22:39:23.580Z,3.20
2023-05-20T22:41:51.178Z,3.00
2023-05-20T22:44:18.822Z,3.97
2023-05-20T22:46:47.827Z,3.50
2023-05-20T22:49:16.669Z,3.80
2023-05-20T22:51:44.253Z,4.03
2023-05-20T22:54:12.034Z,3.97
2023-05-20T22:56:39.807Z,3.13
2023-05-20T22:59:07.457Z,2.90
2023-05-20T23:01:35.258Z,3.60
2023-05-20T23:04:04.664Z,3.80
2023-05-20T23:06:32.750Z,2.87
2023-05-20T23:09:00.396Z,2.87
2023-05-20T23:11:28.033Z,3.27
2023-05-20T23:13:55.612Z,3.63
2023-05-20T23:16:26.231Z,3.53
2023-05-20T23:18:54.004Z,3.73
2023-05-20T23:21:23.348Z,3.40
2023-05-20T23:23:51.113Z,3.67
2023-05-20T23:26:18.736Z,3.30
2023-05-20T23:28:47.809Z,3.40
2023-05-20T23:31:15.740Z,4.47
2023-05-20T23:33:43.669Z,3.67
2023-05-20T23:36:12.425Z,3.50
2023-05-20T23:38:41.693Z,3.50
2023-05-20T23:41:09.406Z,3.97
2023-05-20T23:43:37.032Z,3.83
2023-05-20T23:46:04.758Z,3.90
2023-05-20T23:48:32.864Z,4.07
2023-05-20T23:51:00.588Z,4.40
2023-05-20T23:53:28.214Z,3.33
2023-05-20T23:55:57.169Z,4.20
2023-05-20T23:58:24.996Z,3.67
